sensor_id;sensor_type;location;lat;lon;timestamp;P1;durP1;ratioP1;P2;durP2;ratioP2
21060;SDS011;10689;50.836;3.266;2023-03-01T00:00:40;9.17;;;6.97;;
21060;SDS011;10689;50.836;3.266;2023-03-01T00:03:06;12.30;;;7.33;;
21060;SDS011;10689;50.836;3.266;2023-03-01T00:05:32;6.83;;;5.83;;
21060;SDS011;10689;50.836;3.266;2023-03-01T00:08:00;8.67;;;6.23;;
21060;SDS011;10689;50.836;3.266;2023-03-01T00:10:26;9.07;;;6.57;;
21060;SDS011;10689;50.836;3.266;2023-03-01T00:12:51;11.03;;;7.27;;
21060;SDS011;10689;50.836;3.266;2023-03-01T00:15:17;11.40;;;6.23;;
21060;SDS011;10689;50.836;3.266;2023-03-01T00:17:45;9.00;;;6.73;;
21060;SDS011;10689;50.836;3.266;2023-03-01T00:20:13;13.83;;;6.37;;
21060;SDS011;10689;50.836;3.266;2023-03-01T00:22:39;10.03;;;6.90;;
21060;SDS011;10689;50.836;3.266;2023-03-01T00:25:07;7.00;;;5.30;;
21060;SDS011;10689;50.836;3.266;2023-03-01T00:27:33;8.27;;;6.70;;
21060;SDS011;10689;50.836;3.266;2023-03-01T00:30:00;11.70;;;6.83;;
21060;SDS011;10689;50.836;3.266;2023-03-01T00:32:29;9.07;;;6.63;;
21060;SDS011;10689;50.836;3.266;2023-03-01T00:34:54;8.30;;;6.37;;
21060;SDS011;10689;50.836;3.266;2023-03-01T00:37:20;7.60;;;6.07;;
21060;SDS011;10689;50.836;3.266;2023-03-01T00:39:47;8.00;;;5.80;;
21060;SDS011;10689;50.836;3.266;2023-03-01T00:42:13;8.70;;;6.43;;
21060;SDS011;10689;50.836;3.266;2023-03-01T00:44:38;6.73;;;5.93;;
21060;SDS011;10689;50.836;3.266;2023-03-01T00:47:04;7.40;;;5.60;;
21060;SDS011;10689;50.836;3.266;2023-03-01T00:49:32;6.57;;;5.20;;
21060;SDS011;10689;50.836;3.266;2023-03-01T00:51:58;7.50;;;5.97;;
21060;SDS011;10689;50.836;3.266;2023-03-01T00:54:23;6.77;;;5.13;;
21060;SDS011;10689;50.836;3.266;2023-03-01T00:56:49;7.43;;;5.47;;
21060;SDS011;10689;50.836;3.266;2023-03-01T00:59:15;7.03;;;5.30;;
21060;SDS011;10689;50.836;3.266;2023-03-01T01:01:40;7.97;;;5.27;;
21060;SDS011;10689;50.836;3.266;2023-03-01T01:04:11;6.47;;;5.37;;
21060;SDS011;10689;50.836;3.266;2023-03-01T01:06:39;7.57;;;5.47;;
21060;SDS011;10689;50.836;3.266;2023-03-01T01:09:10;9.67;;;5.33;;
21060;SDS011;10689;50.836;3.266;2023-03-01T01:11:42;6.40;;;5.57;;
21060;SDS011;10689;50.836;3.266;2023-03-01T01:14:12;7.53;;;5.80;;
21060;SDS011;10689;50.836;3.266;2023-03-01T01:16:38;7.53;;;5.83;;
21060;SDS011;10689;50.836;3.266;2023-03-01T01:19:07;7.00;;;5.67;;
21060;SDS011;10689;50.836;3.266;2023-03-01T01:21:33;6.90;;;5.27;;
21060;SDS011;10689;50.836;3.266;2023-03-01T01:23:59;8.13;;;5.67;;
21060;SDS011;10689;50.836;3.266;2023-03-01T01:26:26;6.93;;;5.80;;
21060;SDS011;10689;50.836;3.266;2023-03-01T01:28:54;8.57;;;5.53;;
21060;SDS011;10689;50.836;3.266;2023-03-01T01:31:20;8.17;;;5.83;;
21060;SDS011;10689;50.836;3.266;2023-03-01T01:33:48;6.90;;;6.17;;
21060;SDS011;10689;50.836;3.266;2023-03-01T01:36:17;5.60;;;4.90;;
21060;SDS011;10689;50.836;3.266;2023-03-01T01:38:43;7.00;;;5.23;;
21060;SDS011;10689;50.836;3.266;2023-03-01T01:41:12;6.80;;;5.23;;
21060;SDS011;10689;50.836;3.266;2023-03-01T01:43:39;7.20;;;5.43;;
21060;SDS011;10689;50.836;3.266;2023-03-01T01:48:46;6.63;;;5.17;;
21060;SDS011;10689;50.836;3.266;2023-03-01T01:51:28;6.10;;;4.90;;
21060;SDS011;10689;50.836;3.266;2023-03-01T01:54:03;6.27;;;5.60;;
21060;SDS011;10689;50.836;3.266;2023-03-01T01:56:34;9.47;;;5.07;;
21060;SDS011;10689;50.836;3.266;2023-03-01T01:59:02;7.17;;;5.60;;
21060;SDS011;10689;50.836;3.266;2023-03-01T02:01:27;5.73;;;4.93;;
21060;SDS011;10689;50.836;3.266;2023-03-01T02:03:56;7.87;;;6.13;;
21060;SDS011;10689;50.836;3.266;2023-03-01T02:06:24;7.33;;;5.50;;
21060;SDS011;10689;50.836;3.266;2023-03-01T02:08:54;7.47;;;5.93;;
21060;SDS011;10689;50.836;3.266;2023-03-01T02:11:27;7.43;;;5.57;;
21060;SDS011;10689;50.836;3.266;2023-03-01T02:13:56;7.93;;;6.07;;
21060;SDS011;10689;50.836;3.266;2023-03-01T02:16:23;7.40;;;5.63;;
21060;SDS011;10689;50.836;3.266;2023-03-01T02:18:51;7.20;;;6.03;;
21060;SDS011;10689;50.836;3.266;2023-03-01T02:23:59;8.50;;;6.30;;
21060;SDS011;10689;50.836;3.266;2023-03-01T02:26:34;5.77;;;5.17;;
21060;SDS011;10689;50.836;3.266;2023-03-01T02:29:06;6.47;;;5.73;;
21060;SDS011;10689;50.836;3.266;2023-03-01T02:31:32;8.80;;;6.83;;
21060;SDS011;10689;50.836;3.266;2023-03-01T02:34:08;9.80;;;6.63;;
21060;SDS011;10689;50.836;3.266;2023-03-01T02:36:37;8.13;;;6.37;;
21060;SDS011;10689;50.836;3.266;2023-03-01T02:39:06;9.97;;;6.53;;
21060;SDS011;10689;50.836;3.266;2023-03-01T02:41:39;8.80;;;6.30;;
21060;SDS011;10689;50.836;3.266;2023-03-01T02:44:10;8.33;;;6.60;;
21060;SDS011;10689;50.836;3.266;2023-03-01T02:46:49;9.47;;;6.60;;
21060;SDS011;10689;50.836;3.266;2023-03-01T02:49:27;10.80;;;7.17;;
21060;SDS011;10689;50.836;3.266;2023-03-01T02:54:33;12.33;;;8.27;;
21060;SDS011;10689;50.836;3.266;2023-03-01T02:57:18;10.37;;;6.97;;
21060;SDS011;10689;50.836;3.266;2023-03-01T02:59:46;9.77;;;7.80;;
21060;SDS011;10689;50.836;3.266;2023-03-01T03:05:02;10.07;;;7.60;;
21060;SDS011;10689;50.836;3.266;2023-03-01T03:07:31;9.00;;;7.23;;
21060;SDS011;10689;50.836;3.266;2023-03-01T03:09:58;9.50;;;7.33;;
21060;SDS011;10689;50.836;3.266;2023-03-01T03:12:24;11.13;;;8.90;;
21060;SDS011;10689;50.836;3.266;2023-03-01T03:14:49;10.67;;;8.10;;
21060;SDS011;10689;50.836;3.266;2023-03-01T03:17:17;8.37;;;6.90;;
21060;SDS011;10689;50.836;3.266;2023-03-01T03:19:43;13.13;;;8.90;;
21060;SDS011;10689;50.836;3.266;2023-03-01T03:22:11;9.53;;;7.37;;
21060;SDS011;10689;50.836;3.266;2023-03-01T03:24:37;10.23;;;7.97;;
21060;SDS011;10689;50.836;3.266;2023-03-01T03:27:06;11.57;;;7.63;;
21060;SDS011;10689;50.836;3.266;2023-03-01T03:29:35;9.10;;;7.53;;
21060;SDS011;10689;50.836;3.266;2023-03-01T03:32:01;11.57;;;9.40;;
21060;SDS011;10689;50.836;3.266;2023-03-01T03:34:26;14.50;;;8.97;;
21060;SDS011;10689;50.836;3.266;2023-03-01T03:36:55;11.90;;;9.20;;
21060;SDS011;10689;50.836;3.266;2023-03-01T03:39:24;13.10;;;9.80;;
21060;SDS011;10689;50.836;3.266;2023-03-01T03:41:53;9.20;;;7.93;;
21060;SDS011;10689;50.836;3.266;2023-03-01T03:44:21;11.17;;;8.73;;
21060;SDS011;10689;50.836;3.266;2023-03-01T03:46:46;12.27;;;9.03;;
21060;SDS011;10689;50.836;3.266;2023-03-01T03:49:12;12.00;;;8.90;;
21060;SDS011;10689;50.836;3.266;2023-03-01T03:51:38;11.60;;;8.83;;
21060;SDS011;10689;50.836;3.266;2023-03-01T03:54:08;13.37;;;9.37;;
21060;SDS011;10689;50.836;3.266;2023-03-01T03:56:36;10.20;;;8.33;;
21060;SDS011;10689;50.836;3.266;2023-03-01T03:59:02;12.30;;;9.07;;
21060;SDS011;10689;50.836;3.266;2023-03-01T04:01:27;12.67;;;9.13;;
21060;SDS011;10689;50.836;3.266;2023-03-01T04:03:53;12.53;;;9.80;;
21060;SDS011;10689;50.836;3.266;2023-03-01T04:06:19;11.23;;;9.23;;
21060;SDS011;10689;50.836;3.266;2023-03-01T04:08:47;12.73;;;10.03;;
21060;SDS011;10689;50.836;3.266;2023-03-01T04:11:15;12.53;;;9.50;;
21060;SDS011;10689;50.836;3.266;2023-03-01T04:13:54;11.20;;;9.10;;
21060;SDS011;10689;50.836;3.266;2023-03-01T04:16:22;13.63;;;10.10;;
21060;SDS011;10689;50.836;3.266;2023-03-01T04:18:48;11.57;;;8.57;;
21060;SDS011;10689;50.836;3.266;2023-03-01T04:21:18;11.73;;;8.90;;
21060;SDS011;10689;50.836;3.266;2023-03-01T04:23:45;12.63;;;9.00;;
21060;SDS011;10689;50.836;3.266;2023-03-01T04:26:11;13.03;;;9.67;;
21060;SDS011;10689;50.836;3.266;2023-03-01T04:28:37;13.50;;;10.23;;
21060;SDS011;10689;50.836;3.266;2023-03-01T04:31:09;12.17;;;10.17;;
21060;SDS011;10689;50.836;3.266;2023-03-01T04:33:52;13.77;;;9.17;;
21060;SDS011;10689;50.836;3.266;2023-03-01T04:36:20;14.07;;;10.07;;
21060;SDS011;10689;50.836;3.266;2023-03-01T04:38:47;13.50;;;9.43;;
21060;SDS011;10689;50.836;3.266;2023-03-01T04:41:14;12.97;;;9.70;;
21060;SDS011;10689;50.836;3.266;2023-03-01T04:43:41;17.20;;;9.87;;
21060;SDS011;10689;50.836;3.266;2023-03-01T04:46:08;15.03;;;10.03;;
21060;SDS011;10689;50.836;3.266;2023-03-01T04:48:38;12.87;;;9.90;;
21060;SDS011;10689;50.836;3.266;2023-03-01T04:51:05;13.70;;;10.67;;
21060;SDS011;10689;50.836;3.266;2023-03-01T04:53:32;14.47;;;10.20;;
21060;SDS011;10689;50.836;3.266;2023-03-01T04:56:01;13.23;;;10.37;;
21060;SDS011;10689;50.836;3.266;2023-03-01T04:58:27;12.90;;;10.33;;
21060;SDS011;10689;50.836;3.266;2023-03-01T05:00:54;15.40;;;10.97;;
21060;SDS011;10689;50.836;3.266;2023-03-01T05:03:20;15.63;;;10.70;;
21060;SDS011;10689;50.836;3.266;2023-03-01T05:05:48;16.50;;;11.13;;
21060;SDS011;10689;50.836;3.266;2023-03-01T05:08:15;17.40;;;10.17;;
21060;SDS011;10689;50.836;3.266;2023-03-01T05:10:49;15.80;;;11.80;;
21060;SDS011;10689;50.836;3.266;2023-03-01T05:13:16;14.50;;;11.03;;
21060;SDS011;10689;50.836;3.266;2023-03-01T05:15:53;14.07;;;10.40;;
21060;SDS011;10689;50.836;3.266;2023-03-01T05:18:30;18.07;;;11.43;;
21060;SDS011;10689;50.836;3.266;2023-03-01T05:21:08;14.67;;;10.93;;
21060;SDS011;10689;50.836;3.266;2023-03-01T05:23:35;15.60;;;10.70;;
21060;SDS011;10689;50.836;3.266;2023-03-01T05:26:06;14.20;;;11.03;;
21060;SDS011;10689;50.836;3.266;2023-03-01T05:28:35;13.83;;;10.00;;
21060;SDS011;10689;50.836;3.266;2023-03-01T05:31:00;15.70;;;11.80;;
21060;SDS011;10689;50.836;3.266;2023-03-01T05:33:27;15.57;;;11.53;;
21060;SDS011;10689;50.836;3.266;2023-03-01T05:35:52;15.33;;;10.17;;
21060;SDS011;10689;50.836;3.266;2023-03-01T05:38:18;18.63;;;13.13;;
21060;SDS011;10689;50.836;3.266;2023-03-01T05:40:46;13.77;;;10.67;;
21060;SDS011;10689;50.836;3.266;2023-03-01T05:43:14;16.03;;;11.97;;
21060;SDS011;10689;50.836;3.266;2023-03-01T05:45:42;14.43;;;10.47;;
21060;SDS011;10689;50.836;3.266;2023-03-01T05:48:08;15.83;;;11.23;;
21060;SDS011;10689;50.836;3.266;2023-03-01T05:50:38;14.27;;;10.43;;
21060;SDS011;10689;50.836;3.266;2023-03-01T05:53:08;16.30;;;10.63;;
21060;SDS011;10689;50.836;3.266;2023-03-01T05:55:41;16.57;;;11.47;;
21060;SDS011;10689;50.836;3.266;2023-03-01T05:58:13;16.73;;;11.80;;
21060;SDS011;10689;50.836;3.266;2023-03-01T06:00:41;15.23;;;11.43;;
21060;SDS011;10689;50.836;3.266;2023-03-01T06:03:10;15.53;;;11.27;;
21060;SDS011;10689;50.836;3.266;2023-03-01T06:05:39;13.23;;;9.73;;
21060;SDS011;10689;50.836;3.266;2023-03-01T06:08:05;15.17;;;11.30;;
21060;SDS011;10689;50.836;3.266;2023-03-01T06:10:32;16.07;;;10.77;;
21060;SDS011;10689;50.836;3.266;2023-03-01T06:12:58;17.20;;;12.83;;
21060;SDS011;10689;50.836;3.266;2023-03-01T06:15:24;14.93;;;11.70;;
21060;SDS011;10689;50.836;3.266;2023-03-01T06:17:53;19.63;;;11.70;;
21060;SDS011;10689;50.836;3.266;2023-03-01T06:20:22;19.10;;;11.13;;
21060;SDS011;10689;50.836;3.266;2023-03-01T06:22:49;17.33;;;11.20;;
21060;SDS011;10689;50.836;3.266;2023-03-01T06:25:16;16.13;;;10.83;;
21060;SDS011;10689;50.836;3.266;2023-03-01T06:27:45;14.53;;;11.87;;
21060;SDS011;10689;50.836;3.266;2023-03-01T06:30:12;15.70;;;11.70;;
21060;SDS011;10689;50.836;3.266;2023-03-01T06:32:40;18.00;;;10.33;;
21060;SDS011;10689;50.836;3.266;2023-03-01T06:35:07;15.87;;;11.47;;
21060;SDS011;10689;50.836;3.266;2023-03-01T06:37:34;17.33;;;10.97;;
21060;SDS011;10689;50.836;3.266;2023-03-01T06:40:00;16.50;;;11.10;;
21060;SDS011;10689;50.836;3.266;2023-03-01T06:42:32;15.93;;;10.73;;
21060;SDS011;10689;50.836;3.266;2023-03-01T06:44:57;16.70;;;11.43;;
21060;SDS011;10689;50.836;3.266;2023-03-01T06:47:23;15.13;;;11.30;;
21060;SDS011;10689;50.836;3.266;2023-03-01T06:49:48;15.30;;;10.57;;
21060;SDS011;10689;50.836;3.266;2023-03-01T06:52:14;13.30;;;10.33;;
21060;SDS011;10689;50.836;3.266;2023-03-01T06:54:40;12.50;;;9.43;;
21060;SDS011;10689;50.836;3.266;2023-03-01T06:57:05;15.50;;;11.03;;
21060;SDS011;10689;50.836;3.266;2023-03-01T06:59:33;14.20;;;10.60;;
21060;SDS011;10689;50.836;3.266;2023-03-01T07:02:01;12.33;;;9.73;;
21060;SDS011;10689;50.836;3.266;2023-03-01T07:04:29;15.27;;;11.23;;
21060;SDS011;10689;50.836;3.266;2023-03-01T07:06:55;14.73;;;10.70;;
21060;SDS011;10689;50.836;3.266;2023-03-01T07:09:24;12.83;;;9.27;;
21060;SDS011;10689;50.836;3.266;2023-03-01T07:11:49;14.07;;;10.40;;
21060;SDS011;10689;50.836;3.266;2023-03-01T07:14:17;13.93;;;9.57;;
21060;SDS011;10689;50.836;3.266;2023-03-01T07:16:44;17.03;;;11.03;;
21060;SDS011;10689;50.836;3.266;2023-03-01T07:19:10;14.87;;;9.10;;
21060;SDS011;10689;50.836;3.266;2023-03-01T07:21:36;13.90;;;10.57;;
21060;SDS011;10689;50.836;3.266;2023-03-01T07:24:05;15.83;;;10.00;;
21060;SDS011;10689;50.836;3.266;2023-03-01T07:26:31;15.07;;;9.70;;
21060;SDS011;10689;50.836;3.266;2023-03-01T07:29:01;12.50;;;9.97;;
21060;SDS011;10689;50.836;3.266;2023-03-01T07:31:30;16.77;;;9.50;;
21060;SDS011;10689;50.836;3.266;2023-03-01T07:33:56;15.82;;;11.25;;
21060;SDS011;10689;50.836;3.266;2023-03-01T07:36:24;14.67;;;10.60;;
21060;SDS011;10689;50.836;3.266;2023-03-01T07:38:50;12.83;;;9.53;;
21060;SDS011;10689;50.836;3.266;2023-03-01T07:41:16;11.07;;;9.07;;
21060;SDS011;10689;50.836;3.266;2023-03-01T07:43:47;13.03;;;9.67;;
21060;SDS011;10689;50.836;3.266;2023-03-01T07:46:15;11.27;;;8.40;;
21060;SDS011;10689;50.836;3.266;2023-03-01T07:48:40;14.33;;;10.03;;
21060;SDS011;10689;50.836;3.266;2023-03-01T07:51:06;14.10;;;8.93;;
21060;SDS011;10689;50.836;3.266;2023-03-01T07:53:32;10.93;;;9.03;;
21060;SDS011;10689;50.836;3.266;2023-03-01T07:58:36;11.60;;;9.13;;
21060;SDS011;10689;50.836;3.266;2023-03-01T08:01:03;12.77;;;8.67;;
21060;SDS011;10689;50.836;3.266;2023-03-01T08:03:36;10.80;;;7.93;;
21060;SDS011;10689;50.836;3.266;2023-03-01T08:06:03;13.00;;;9.27;;
21060;SDS011;10689;50.836;3.266;2023-03-01T08:08:30;12.87;;;9.40;;
21060;SDS011;10689;50.836;3.266;2023-03-01T08:10:59;11.10;;;9.27;;
21060;SDS011;10689;50.836;3.266;2023-03-01T08:13:26;11.37;;;8.13;;
21060;SDS011;10689;50.836;3.266;2023-03-01T08:16:00;12.27;;;8.30;;
21060;SDS011;10689;50.836;3.266;2023-03-01T08:18:28;10.00;;;8.13;;
21060;SDS011;10689;50.836;3.266;2023-03-01T08:20:53;11.23;;;7.83;;
21060;SDS011;10689;50.836;3.266;2023-03-01T08:23:19;12.23;;;8.03;;
21060;SDS011;10689;50.836;3.266;2023-03-01T08:25:47;9.23;;;7.27;;
21060;SDS011;10689;50.836;3.266;2023-03-01T08:28:13;10.47;;;7.13;;
21060;SDS011;10689;50.836;3.266;2023-03-01T08:30:39;16.07;;;7.17;;
21060;SDS011;10689;50.836;3.266;2023-03-01T08:33:04;8.80;;;6.87;;
21060;SDS011;10689;50.836;3.266;2023-03-01T08:35:32;10.37;;;5.90;;
21060;SDS011;10689;50.836;3.266;2023-03-01T08:37:58;9.17;;;6.50;;
21060;SDS011;10689;50.836;3.266;2023-03-01T08:40:26;10.53;;;6.77;;
21060;SDS011;10689;50.836;3.266;2023-03-01T08:42:52;8.97;;;7.10;;
21060;SDS011;10689;50.836;3.266;2023-03-01T08:45:20;8.93;;;6.40;;
21060;SDS011;10689;50.836;3.266;2023-03-01T08:47:45;7.47;;;5.67;;
21060;SDS011;10689;50.836;3.266;2023-03-01T08:50:11;8.67;;;6.43;;
21060;SDS011;10689;50.836;3.266;2023-03-01T08:52:37;10.90;;;7.77;;
21060;SDS011;10689;50.836;3.266;2023-03-01T08:55:02;7.97;;;6.23;;
21060;SDS011;10689;50.836;3.266;2023-03-01T08:57:29;7.67;;;6.47;;
21060;SDS011;10689;50.836;3.266;2023-03-01T08:59:54;9.33;;;7.00;;
21060;SDS011;10689;50.836;3.266;2023-03-01T09:02:21;9.03;;;6.77;;
21060;SDS011;10689;50.836;3.266;2023-03-01T09:04:46;10.00;;;6.90;;
21060;SDS011;10689;50.836;3.266;2023-03-01T09:07:12;9.10;;;6.50;;
21060;SDS011;10689;50.836;3.266;2023-03-01T09:09:38;9.17;;;5.87;;
21060;SDS011;10689;50.836;3.266;2023-03-01T09:12:03;7.73;;;5.83;;
21060;SDS011;10689;50.836;3.266;2023-03-01T09:14:29;7.47;;;5.73;;
21060;SDS011;10689;50.836;3.266;2023-03-01T09:16:55;6.63;;;5.87;;
21060;SDS011;10689;50.836;3.266;2023-03-01T09:19:21;7.10;;;5.10;;
21060;SDS011;10689;50.836;3.266;2023-03-01T09:21:48;9.57;;;6.37;;
21060;SDS011;10689;50.836;3.266;2023-03-01T09:24:17;8.33;;;6.00;;
21060;SDS011;10689;50.836;3.266;2023-03-01T09:26:47;10.07;;;6.60;;
21060;SDS011;10689;50.836;3.266;2023-03-01T09:29:14;10.43;;;6.13;;
21060;SDS011;10689;50.836;3.266;2023-03-01T09:31:41;12.27;;;6.07;;
21060;SDS011;10689;50.836;3.266;2023-03-01T09:34:07;6.80;;;5.70;;
21060;SDS011;10689;50.836;3.266;2023-03-01T09:36:33;10.53;;;5.93;;
21060;SDS011;10689;50.836;3.266;2023-03-01T09:38:59;7.37;;;5.97;;
21060;SDS011;10689;50.836;3.266;2023-03-01T09:46:45;7.33;;;5.47;;
21060;SDS011;10689;50.836;3.266;2023-03-01T09:49:13;8.37;;;5.63;;
21060;SDS011;10689;50.836;3.266;2023-03-01T09:52:14;8.60;;;5.50;;
21060;SDS011;10689;50.836;3.266;2023-03-01T09:55:05;5.80;;;4.43;;
21060;SDS011;10689;50.836;3.266;2023-03-01T10:08:37;4.60;;;3.83;;
21060;SDS011;10689;50.836;3.266;2023-03-01T10:11:15;6.17;;;4.67;;
21060;SDS011;10689;50.836;3.266;2023-03-01T10:13:57;5.30;;;4.60;;
21060;SDS011;10689;50.836;3.266;2023-03-01T10:16:50;5.87;;;4.33;;
21060;SDS011;10689;50.836;3.266;2023-03-01T10:19:23;11.57;;;4.27;;
21060;SDS011;10689;50.836;3.266;2023-03-01T10:21:52;4.00;;;3.43;;
21060;SDS011;10689;50.836;3.266;2023-03-01T10:24:21;8.63;;;6.03;;
21060;SDS011;10689;50.836;3.266;2023-03-01T10:29:22;4.57;;;3.97;;
21060;SDS011;10689;50.836;3.266;2023-03-01T10:31:51;5.00;;;3.70;;
21060;SDS011;10689;50.836;3.266;2023-03-01T10:34:28;5.27;;;4.63;;
21060;SDS011;10689;50.836;3.266;2023-03-01T10:37:15;5.13;;;4.57;;
21060;SDS011;10689;50.836;3.266;2023-03-01T10:39:56;4.73;;;4.13;;
21060;SDS011;10689;50.836;3.266;2023-03-01T10:42:27;4.87;;;3.90;;
21060;SDS011;10689;50.836;3.266;2023-03-01T10:44:58;5.87;;;3.93;;
21060;SDS011;10689;50.836;3.266;2023-03-01T10:51:12;7.50;;;4.60;;
21060;SDS011;10689;50.836;3.266;2023-03-01T10:53:42;7.43;;;4.37;;
21060;SDS011;10689;50.836;3.266;2023-03-01T10:56:14;4.47;;;3.90;;
21060;SDS011;10689;50.836;3.266;2023-03-01T10:58:59;4.97;;;4.13;;
21060;SDS011;10689;50.836;3.266;2023-03-01T11:01:27;5.47;;;4.17;;
21060;SDS011;10689;50.836;3.266;2023-03-01T11:06:35;7.40;;;3.97;;
21060;SDS011;10689;50.836;3.266;2023-03-01T11:11:51;5.73;;;4.20;;
21060;SDS011;10689;50.836;3.266;2023-03-01T11:14:20;6.60;;;4.43;;
21060;SDS011;10689;50.836;3.266;2023-03-01T11:16:49;5.70;;;4.00;;
21060;SDS011;10689;50.836;3.266;2023-03-01T11:19:30;5.07;;;3.70;;
21060;SDS011;10689;50.836;3.266;2023-03-01T11:21:58;4.87;;;3.47;;
21060;SDS011;10689;50.836;3.266;2023-03-01T11:24:39;5.90;;;4.07;;
21060;SDS011;10689;50.836;3.266;2023-03-01T11:27:16;4.80;;;3.90;;
21060;SDS011;10689;50.836;3.266;2023-03-01T11:29:45;6.10;;;4.37;;
21060;SDS011;10689;50.836;3.266;2023-03-01T11:32:25;6.90;;;4.50;;
21060;SDS011;10689;50.836;3.266;2023-03-01T11:34:57;4.37;;;3.73;;
21060;SDS011;10689;50.836;3.266;2023-03-01T11:43:26;5.30;;;4.23;;
21060;SDS011;10689;50.836;3.266;2023-03-01T11:46:32;4.33;;;3.80;;
21060;SDS011;10689;50.836;3.266;2023-03-01T11:51:48;6.73;;;4.23;;
21060;SDS011;10689;50.836;3.266;2023-03-01T11:56:55;4.73;;;3.70;;
21060;SDS011;10689;50.836;3.266;2023-03-01T11:59:59;4.27;;;3.43;;
21060;SDS011;10689;50.836;3.266;2023-03-01T12:02:46;7.03;;;3.77;;
21060;SDS011;10689;50.836;3.266;2023-03-01T12:05:20;6.37;;;4.30;;
21060;SDS011;10689;50.836;3.266;2023-03-01T12:08:09;5.43;;;3.93;;
21060;SDS011;10689;50.836;3.266;2023-03-01T12:22:01;4.47;;;3.43;;
21060;SDS011;10689;50.836;3.266;2023-03-01T12:27:37;3.93;;;3.30;;
21060;SDS011;10689;50.836;3.266;2023-03-01T12:30:31;5.70;;;3.63;;
21060;SDS011;10689;50.836;3.266;2023-03-01T12:52:47;4.57;;;3.50;;
21060;SDS011;10689;50.836;3.266;2023-03-01T12:58:15;4.83;;;3.70;;
21060;SDS011;10689;50.836;3.266;2023-03-01T13:01:02;3.67;;;3.23;;
21060;SDS011;10689;50.836;3.266;2023-03-01T13:06:38;4.93;;;3.87;;
21060;SDS011;10689;50.836;3.266;2023-03-01T13:12:46;5.87;;;3.83;;
21060;SDS011;10689;50.836;3.266;2023-03-01T13:17:47;5.37;;;3.70;;
21060;SDS011;10689;50.836;3.266;2023-03-01T13:20:18;6.00;;;4.03;;
21060;SDS011;10689;50.836;3.266;2023-03-01T13:22:59;7.10;;;3.60;;
21060;SDS011;10689;50.836;3.266;2023-03-01T13:25:30;4.20;;;3.70;;
21060;SDS011;10689;50.836;3.266;2023-03-01T13:30:59;4.37;;;3.97;;
21060;SDS011;10689;50.836;3.266;2023-03-01T13:35:55;3.83;;;3.37;;
21060;SDS011;10689;50.836;3.266;2023-03-01T13:39:25;5.70;;;3.80;;
21060;SDS011;10689;50.836;3.266;2023-03-01T13:41:14;4.80;;;4.00;;
21060;SDS011;10689;50.836;3.266;2023-03-01T13:43:42;5.50;;;3.67;;
21060;SDS011;10689;50.836;3.266;2023-03-01T13:46:18;5.13;;;4.00;;
21060;SDS011;10689;50.836;3.266;2023-03-01T13:48:50;4.87;;;3.40;;
21060;SDS011;10689;50.836;3.266;2023-03-01T13:51:23;3.43;;;3.13;;
21060;SDS011;10689;50.836;3.266;2023-03-01T13:53:51;5.03;;;3.60;;
21060;SDS011;10689;50.836;3.266;2023-03-01T13:56:21;5.23;;;3.30;;
21060;SDS011;10689;50.836;3.266;2023-03-01T13:58:54;4.07;;;3.20;;
21060;SDS011;10689;50.836;3.266;2023-03-01T14:01:26;8.17;;;3.53;;
21060;SDS011;10689;50.836;3.266;2023-03-01T14:03:54;4.77;;;3.30;;
21060;SDS011;10689;50.836;3.266;2023-03-01T14:06:22;6.37;;;3.90;;
21060;SDS011;10689;50.836;3.266;2023-03-01T14:08:51;7.63;;;4.53;;
21060;SDS011;10689;50.836;3.266;2023-03-01T14:17:17;5.67;;;3.80;;
21060;SDS011;10689;50.836;3.266;2023-03-01T14:19:54;5.83;;;3.63;;
21060;SDS011;10689;50.836;3.266;2023-03-01T14:22:24;4.77;;;4.23;;
21060;SDS011;10689;50.836;3.266;2023-03-01T14:24:56;4.93;;;4.23;;
21060;SDS011;10689;50.836;3.266;2023-03-01T14:27:26;6.37;;;3.83;;
21060;SDS011;10689;50.836;3.266;2023-03-01T14:29:58;6.60;;;4.43;;
21060;SDS011;10689;50.836;3.266;2023-03-01T14:32:28;6.27;;;3.97;;
21060;SDS011;10689;50.836;3.266;2023-03-01T14:34:56;5.37;;;4.30;;
21060;SDS011;10689;50.836;3.266;2023-03-01T14:39:56;5.80;;;3.47;;
21060;SDS011;10689;50.836;3.266;2023-03-01T14:42:25;5.43;;;4.30;;
21060;SDS011;10689;50.836;3.266;2023-03-01T14:44:54;6.73;;;4.17;;
21060;SDS011;10689;50.836;3.266;2023-03-01T14:47:32;5.30;;;3.70;;
21060;SDS011;10689;50.836;3.266;2023-03-01T14:52:37;4.53;;;3.80;;
21060;SDS011;10689;50.836;3.266;2023-03-01T14:55:06;4.13;;;3.13;;
21060;SDS011;10689;50.836;3.266;2023-03-01T14:57:42;5.07;;;3.63;;
21060;SDS011;10689;50.836;3.266;2023-03-01T15:00:10;5.50;;;3.67;;
21060;SDS011;10689;50.836;3.266;2023-03-01T15:02:50;4.50;;;3.17;;
21060;SDS011;10689;50.836;3.266;2023-03-01T15:05:20;5.07;;;3.90;;
21060;SDS011;10689;50.836;3.266;2023-03-01T15:07:53;4.10;;;3.30;;
21060;SDS011;10689;50.836;3.266;2023-03-01T15:10:23;5.83;;;3.70;;
21060;SDS011;10689;50.836;3.266;2023-03-01T15:12:54;4.37;;;3.90;;
21060;SDS011;10689;50.836;3.266;2023-03-01T15:17:57;4.57;;;3.70;;
21060;SDS011;10689;50.836;3.266;2023-03-01T15:20:27;8.47;;;4.27;;
21060;SDS011;10689;50.836;3.266;2023-03-01T15:22:55;5.80;;;4.27;;
21060;SDS011;10689;50.836;3.266;2023-03-01T15:25:26;4.27;;;3.60;;
21060;SDS011;10689;50.836;3.266;2023-03-01T15:27:54;5.30;;;3.83;;
21060;SDS011;10689;50.836;3.266;2023-03-01T15:32:48;3.97;;;3.40;;
21060;SDS011;10689;50.836;3.266;2023-03-01T15:35:44;4.70;;;4.00;;
21060;SDS011;10689;50.836;3.266;2023-03-01T15:41:23;5.70;;;4.03;;
21060;SDS011;10689;50.836;3.266;2023-03-01T15:44:47;4.70;;;3.73;;
21060;SDS011;10689;50.836;3.266;2023-03-01T15:46:52;4.70;;;3.80;;
21060;SDS011;10689;50.836;3.266;2023-03-01T15:49:39;6.73;;;4.17;;
21060;SDS011;10689;50.836;3.266;2023-03-01T15:52:08;7.27;;;4.10;;
21060;SDS011;10689;50.836;3.266;2023-03-01T15:54:38;7.87;;;4.13;;
21060;SDS011;10689;50.836;3.266;2023-03-01T15:57:13;8.97;;;4.17;;
21060;SDS011;10689;50.836;3.266;2023-03-01T15:59:40;6.80;;;4.63;;
21060;SDS011;10689;50.836;3.266;2023-03-01T16:02:10;6.70;;;4.40;;
21060;SDS011;10689;50.836;3.266;2023-03-01T16:04:40;5.33;;;4.17;;
21060;SDS011;10689;50.836;3.266;2023-03-01T16:07:08;5.70;;;4.37;;
21060;SDS011;10689;50.836;3.266;2023-03-01T16:09:34;4.53;;;3.33;;
21060;SDS011;10689;50.836;3.266;2023-03-01T16:12:00;6.67;;;3.80;;
21060;SDS011;10689;50.836;3.266;2023-03-01T16:14:29;3.93;;;3.40;;
21060;SDS011;10689;50.836;3.266;2023-03-01T16:16:54;5.67;;;4.13;;
21060;SDS011;10689;50.836;3.266;2023-03-01T16:19:20;6.40;;;4.37;;
21060;SDS011;10689;50.836;3.266;2023-03-01T16:21:46;5.40;;;3.63;;
21060;SDS011;10689;50.836;3.266;2023-03-01T16:24:13;4.57;;;3.80;;
21060;SDS011;10689;50.836;3.266;2023-03-01T16:26:39;5.67;;;4.07;;
21060;SDS011;10689;50.836;3.266;2023-03-01T16:29:05;5.17;;;3.77;;
21060;SDS011;10689;50.836;3.266;2023-03-01T16:31:31;7.53;;;3.70;;
21060;SDS011;10689;50.836;3.266;2023-03-01T16:33:58;7.00;;;4.53;;
21060;SDS011;10689;50.836;3.266;2023-03-01T16:36:26;5.30;;;3.57;;
21060;SDS011;10689;50.836;3.266;2023-03-01T16:38:53;6.10;;;4.43;;
21060;SDS011;10689;50.836;3.266;2023-03-01T16:41:21;6.17;;;4.03;;
21060;SDS011;10689;50.836;3.266;2023-03-01T16:43:47;4.77;;;3.80;;
21060;SDS011;10689;50.836;3.266;2023-03-01T16:46:14;4.43;;;3.43;;
21060;SDS011;10689;50.836;3.266;2023-03-01T16:48:44;5.73;;;4.43;;
21060;SDS011;10689;50.836;3.266;2023-03-01T16:51:11;5.63;;;4.35;;
21060;SDS011;10689;50.836;3.266;2023-03-01T16:53:37;7.53;;;4.53;;
21060;SDS011;10689;50.836;3.266;2023-03-01T16:56:04;5.97;;;3.57;;
21060;SDS011;10689;50.836;3.266;2023-03-01T16:58:32;5.63;;;4.17;;